Aeroporto :
LOGIN :

Iscrizione | Disclaimer

   EN    FR    IT 

 










Sommario :    VFR   VFR Marginale   IFR   IFR Intensivo   IFR Molto Intensivo
Visibilità : 
Base nubi : 
>= 8 km
>= 3000ft
5 / 8 km
1000 / 3000 ft
1500m / 5 km
500 / 1000 ft
800 / 1500m
200 / 500 ft
< 800m
< 200 ft
Simboli :   Temporali  Nebbia  Neve Forte  Precipitazioni Forti  Vento > 20 kt
SIGMETs :   Varie  Temporali  Ghiacco  Turbolenza  Onda orograficha  Ceneri Vulcaniche






- Altitudine del aeroporto : 38 ft
- Codice IATA : BOH


EGHH - Bournemouth

ULTIMO METAR :
  • 261620Z 35017KT 310V040 9999 FEW048 13/03 Q1013

METARs OBSOLETI :
  • 261550Z 35017KT 310V050 9999 FEW048 14/03 Q1013
  • 261520Z 36018KT 310V030 9999 FEW048 14/03 Q1013
  • 261450Z 36018G28KT 310V050 9999 FEW048 14/02 Q1012
  • 261420Z 35015KT 300V020 9999 FEW048 14/03 Q1012
  • 261350Z 33016KT 290V010 9999 FEW048 14/02 Q1012

TAF TAF EGHH
Valido dal 26 a 15 ore il 27 a 00 ore UTC


261356Z 2615/2624 34015KT 9999 FEW045
TEMPO 2615/2624 35018G28KT
ATIS : +44 1202 364 151
Met : +44 1202 364 158 (TAF)



MetMap, La meteo Aeronautica in un colpo d'occhio ! - Copyright ORBIFLY Dicembre 2007 - Disclaimer

ORBIFLY MET'MAP TEAM :

Programmazione e sviluppo : Alexandra Zaïnal
Concezione : Baudouin d'Aumeries
Aiuto per la programmazione : Marc-Olivier Méhu
Supporto tecnico e logistico : Manuel Goepfert
Aiuto per la traduzione : Arnaldo La Scala

Contatto : metmap@orbifly.com




FONTI E CREDITI :

   NOAA